EPLL/LCJ METAR and TAF weather

Enter ICAO airport designator
Station Type Date Time Source
EPLL METAR 2021/04/18 03:30 UTC NOAA

EPLL 180330Z 13004KT 090V160 1700 BR OVC002 06/06 Q1018


Station Type Date Time Source
EPLL Decoded METAR 2021/04/18 03:30 UTC NOAA

Station name not available
Apr 17, 2021 - 11:30 PM EDT / 2021.04.18 0330 UTC
Wind: from the SE (130 degrees) at 5 MPH (4 KT) (direction variable):0
Visibility: 1 mile(s):0
Sky conditions: overcast
Weather: mist
Temperature: 42 F (6 C)
Dew Point: 42 F (6 C)
Relative Humidity: 100%
Pressure (altimeter): 30.06 in. Hg (1018 hPa)
ob: EPLL 180330Z 13004KT 090V160 1700 BR OVC002 06/06 Q1018
cycle: 3

Station Type Date Time Source
EPLL TAF 2021/04/17 18:00 UTC NOAA

TAF EPLL 171730Z 1718/1818 VRB03KT 3500 BR SCT008 BKN010
TEMPO 1718/1720 2500 BR BKN006 PROB40 1718/1720 1400 DZ BR BKN004
BECMG 1720/1722 2000 BR BKN004
TEMPO 1720/1722 1200 BR
BECMG 1800/1802 0800 FG BKN002 PROB40 1802/1807 0300 FG OVC001
BECMG 1808/1810 12010KT 9999 SCT030

Example: see airport list